createdAt,value
2023-08-07T00:02:26.752Z,15.04
2023-08-07T00:04:54.054Z,15.01
2023-08-07T00:07:20.966Z,14.98
2023-08-07T00:09:47.931Z,14.93
2023-08-07T00:12:14.779Z,14.91
2023-08-07T00:14:41.840Z,14.90
2023-08-07T00:17:09.039Z,14.87
2023-08-07T00:19:36.041Z,14.82
2023-08-07T00:22:03.033Z,14.79
2023-08-07T00:24:29.939Z,14.75
2023-08-07T00:26:57.250Z,14.75
2023-08-07T00:29:24.574Z,14.79
2023-08-07T00:31:51.387Z,14.80
2023-08-07T00:34:18.351Z,14.80
2023-08-07T00:36:45.813Z,14.78
2023-08-07T00:39:12.778Z,14.77
2023-08-07T00:41:40.822Z,14.78
2023-08-07T00:44:07.821Z,14.80
2023-08-07T00:46:36.387Z,14.80
2023-08-07T00:49:04.439Z,14.82
2023-08-07T00:51:32.113Z,14.80
2023-08-07T00:54:02.315Z,14.80
2023-08-07T00:56:31.011Z,14.82
2023-08-07T00:58:59.250Z,14.84
2023-08-07T01:01:26.806Z,14.87
2023-08-07T01:03:54.322Z,14.87
2023-08-07T01:06:21.545Z,14.87
2023-08-07T01:08:48.948Z,14.86
2023-08-07T01:11:21.704Z,14.86
2023-08-07T01:14:10.282Z,14.88
2023-08-07T01:16:51.287Z,14.84
2023-08-07T01:19:27.443Z,14.86
2023-08-07T01:22:14.602Z,14.85
2023-08-07T01:24:46.161Z,14.86
2023-08-07T01:27:19.259Z,14.87
2023-08-07T01:29:50.324Z,14.89
2023-08-07T01:32:25.298Z,14.89
2023-08-07T01:34:54.659Z,14.88
2023-08-07T01:37:23.491Z,14.87
2023-08-07T01:39:52.220Z,14.88
2023-08-07T01:42:19.278Z,14.89
2023-08-07T01:44:46.578Z,14.90
2023-08-07T01:47:13.498Z,14.93
2023-08-07T01:49:41.270Z,14.88
2023-08-07T01:52:09.371Z,14.86
2023-08-07T01:54:36.262Z,14.87
2023-08-07T01:57:03.577Z,14.86
2023-08-07T01:59:31.699Z,14.88
2023-08-07T02:01:58.818Z,14.89
2023-08-07T02:04:25.905Z,14.89
2023-08-07T02:06:54.316Z,14.91
2023-08-07T02:09:23.193Z,14.88
2023-08-07T02:11:50.324Z,14.88
2023-08-07T02:14:17.370Z,14.87
2023-08-07T02:16:44.243Z,14.88
2023-08-07T02:19:11.583Z,14.87
2023-08-07T02:21:39.557Z,14.86
2023-08-07T02:24:06.522Z,14.86
2023-08-07T02:26:33.155Z,14.87
2023-08-07T02:29:00.213Z,14.86
2023-08-07T02:31:27.085Z,14.85
2023-08-07T02:33:55.305Z,14.85
2023-08-07T02:36:22.077Z,14.83
2023-08-07T02:38:48.994Z,14.80
2023-08-07T02:41:15.851Z,14.80
2023-08-07T02:43:43.703Z,14.78
2023-08-07T02:46:10.490Z,14.76
2023-08-07T02:48:38.013Z,14.77
2023-08-07T02:51:04.883Z,14.77
2023-08-07T02:53:32.003Z,14.79
2023-08-07T02:55:58.951Z,14.78
2023-08-07T02:58:25.623Z,14.77
2023-08-07T03:00:52.743Z,14.78
2023-08-07T03:03:19.703Z,14.78
2023-08-07T03:05:51.581Z,14.80
2023-08-07T03:08:18.537Z,14.79
2023-08-07T03:10:57.459Z,14.78
2023-08-07T03:13:26.471Z,14.74
2023-08-07T03:16:19.809Z,14.71
2023-08-07T03:18:47.563Z,14.72
2023-08-07T03:21:14.751Z,14.74
2023-08-07T03:23:42.062Z,14.73
2023-08-07T03:26:18.971Z,14.72
2023-08-07T03:28:49.121Z,14.72
2023-08-07T03:31:17.215Z,14.69
2023-08-07T03:33:44.449Z,14.68
2023-08-07T03:36:12.953Z,14.70
2023-08-07T03:38:41.497Z,14.67
2023-08-07T03:41:08.964Z,14.65
2023-08-07T03:43:36.302Z,14.64
2023-08-07T03:46:04.269Z,14.65
2023-08-07T03:48:32.222Z,14.65
2023-08-07T03:51:04.901Z,14.64
2023-08-07T03:53:32.918Z,14.64
2023-08-07T03:55:59.939Z,14.63
2023-08-07T03:58:27.316Z,14.62
2023-08-07T04:00:54.890Z,14.64
2023-08-07T04:03:22.582Z,14.65
2023-08-07T04:05:54.757Z,14.60
2023-08-07T04:08:24.169Z,14.58
2023-08-07T04:11:01.695Z,14.54
2023-08-07T04:13:29.672Z,14.52
2023-08-07T04:15:57.352Z,14.48
2023-08-07T04:18:25.134Z,14.48
2023-08-07T04:20:56.527Z,14.48
2023-08-07T04:23:24.301Z,14.45
2023-08-07T04:25:52.578Z,14.45
2023-08-07T04:28:20.060Z,14.48
2023-08-07T04:30:53.957Z,14.53
2023-08-07T04:33:21.528Z,14.55
2023-08-07T04:35:49.143Z,14.54
2023-08-07T04:38:17.588Z,14.56
2023-08-07T04:40:49.552Z,14.56
2023-08-07T04:43:18.471Z,14.58
2023-08-07T04:45:48.328Z,14.65
2023-08-07T04:48:16.068Z,14.65
2023-08-07T04:50:43.086Z,14.65
2023-08-07T04:53:10.104Z,14.67
2023-08-07T04:55:37.349Z,14.64
2023-08-07T04:58:04.564Z,14.63
2023-08-07T05:00:31.361Z,14.61
2023-08-07T05:02:58.519Z,14.60
2023-08-07T05:05:25.682Z,14.56
2023-08-07T05:07:52.702Z,14.52
2023-08-07T05:10:19.771Z,14.51
2023-08-07T05:12:46.731Z,14.50
2023-08-07T05:15:13.560Z,14.55
2023-08-07T05:17:40.785Z,14.57
2023-08-07T05:20:09.365Z,14.55
2023-08-07T05:22:36.451Z,14.51
2023-08-07T05:25:03.895Z,14.50
2023-08-07T05:27:30.814Z,14.48
2023-08-07T05:29:57.780Z,14.45
2023-08-07T05:32:24.844Z,14.42
2023-08-07T05:34:51.980Z,14.39
2023-08-07T05:37:18.654Z,14.40
2023-08-07T05:39:45.786Z,14.36
2023-08-07T05:42:13.499Z,14.33
2023-08-07T05:44:40.264Z,14.31
2023-08-07T05:47:08.068Z,14.27
2023-08-07T05:49:35.056Z,14.27
2023-08-07T05:52:02.043Z,14.28
2023-08-07T05:54:29.143Z,14.31
2023-08-07T05:56:56.239Z,14.35
2023-08-07T05:59:23.295Z,14.38
2023-08-07T06:01:50.507Z,14.41
2023-08-07T06:04:18.222Z,14.39
2023-08-07T06:06:46.489Z,14.41
2023-08-07T06:09:15.594Z,14.43
2023-08-07T06:11:42.894Z,14.56
2023-08-07T06:14:10.410Z,14.69
2023-08-07T06:16:37.374Z,14.81
2023-08-07T06:21:31.971Z,15.08
2023-08-07T06:23:59.049Z,15.21
2023-08-07T06:26:25.794Z,15.27
2023-08-07T06:28:53.015Z,15.39
2023-08-07T06:31:19.737Z,15.60
2023-08-07T06:33:46.547Z,15.93
2023-08-07T06:36:13.699Z,16.04
2023-08-07T06:38:40.594Z,15.97
2023-08-07T06:41:07.680Z,15.92
2023-08-07T06:43:34.691Z,15.85
2023-08-07T06:46:01.965Z,15.83
2023-08-07T06:48:29.314Z,15.89
2023-08-07T06:50:56.065Z,15.93
2023-08-07T06:53:22.843Z,15.96
2023-08-07T06:55:49.973Z,16.08
2023-08-07T06:58:16.885Z,16.22
2023-08-07T07:00:43.844Z,16.29
2023-08-07T07:03:10.877Z,16.40
2023-08-07T07:05:38.655Z,16.47
2023-08-07T07:08:05.395Z,16.54
2023-08-07T07:10:33.064Z,16.60
2023-08-07T07:13:00.128Z,16.59
2023-08-07T07:15:27.173Z,16.55
2023-08-07T07:17:54.459Z,16.61
2023-08-07T07:20:21.698Z,16.64
2023-08-07T07:22:48.355Z,16.66
2023-08-07T07:25:15.374Z,16.81
2023-08-07T07:27:42.295Z,17.07
2023-08-07T07:30:10.186Z,17.11
2023-08-07T07:32:37.165Z,17.03
2023-08-07T07:35:04.684Z,16.94
2023-08-07T07:37:32.758Z,16.86
2023-08-07T07:39:59.531Z,16.83
2023-08-07T07:42:26.450Z,16.76
2023-08-07T07:44:53.391Z,16.73
2023-08-07T07:47:21.229Z,16.85
2023-08-07T07:49:48.271Z,16.95
2023-08-07T07:52:16.078Z,17.00
2023-08-07T07:54:45.477Z,17.01
2023-08-07T07:57:12.360Z,16.96
2023-08-07T07:59:39.378Z,16.89
2023-08-07T08:02:06.936Z,16.84
2023-08-07T08:04:35.943Z,16.72
2023-08-07T08:07:04.522Z,16.59
2023-08-07T08:09:31.508Z,16.47
2023-08-07T08:11:58.385Z,16.39
2023-08-07T08:14:25.464Z,16.35
2023-08-07T08:16:52.228Z,16.30
2023-08-07T08:19:18.997Z,16.24
2023-08-07T08:21:45.822Z,16.24
2023-08-07T08:24:12.683Z,16.28
2023-08-07T08:26:39.622Z,16.35
2023-08-07T08:29:07.469Z,16.46
2023-08-07T08:31:37.152Z,16.53
2023-08-07T08:34:04.630Z,16.56
2023-08-07T08:36:31.663Z,16.63
2023-08-07T08:38:58.619Z,16.76
2023-08-07T08:41:26.696Z,16.80
2023-08-07T08:43:55.415Z,16.96
2023-08-07T08:46:25.036Z,17.09
2023-08-07T08:48:58.054Z,17.07
2023-08-07T08:51:26.011Z,16.96
2023-08-07T08:53:54.497Z,17.00
2023-08-07T08:56:23.371Z,16.93
2023-08-07T08:58:53.809Z,16.80
2023-08-07T09:01:25.010Z,16.85
2023-08-07T09:03:54.437Z,17.03
2023-08-07T09:06:21.671Z,17.23
2023-08-07T09:08:51.442Z,17.57
2023-08-07T09:11:19.796Z,17.65
2023-08-07T09:13:49.592Z,17.73
2023-08-07T09:16:18.193Z,17.95
2023-08-07T09:18:46.343Z,18.30
2023-08-07T09:21:16.719Z,18.69
2023-08-07T09:23:44.127Z,18.72
2023-08-07T09:26:11.474Z,18.67
2023-08-07T09:28:39.353Z,18.71
2023-08-07T09:31:10.129Z,18.54
2023-08-07T09:33:40.008Z,18.50
2023-08-07T09:36:06.744Z,18.60
2023-08-07T09:38:33.734Z,18.50
2023-08-07T09:41:02.100Z,18.41
2023-08-07T09:43:29.120Z,18.36
2023-08-07T09:46:06.577Z,18.30
2023-08-07T09:48:41.499Z,18.26
2023-08-07T09:51:08.484Z,18.16
2023-08-07T09:53:35.688Z,18.16
2023-08-07T09:56:03.840Z,18.17
2023-08-07T09:58:30.660Z,18.09
2023-08-07T10:01:04.784Z,18.05
2023-08-07T10:03:32.397Z,18.09
2023-08-07T10:06:00.129Z,18.09
2023-08-07T10:08:27.467Z,18.00
2023-08-07T10:10:55.021Z,17.98
2023-08-07T10:13:34.433Z,17.95
2023-08-07T10:16:07.351Z,17.95
2023-08-07T10:18:35.958Z,17.93
2023-08-07T10:21:06.154Z,17.90
2023-08-07T10:23:36.809Z,17.86
2023-08-07T10:26:09.419Z,17.84
2023-08-07T10:28:39.909Z,17.86
2023-08-07T10:31:12.827Z,17.95
2023-08-07T10:33:41.817Z,18.02
2023-08-07T10:36:10.739Z,18.08
2023-08-07T10:38:38.241Z,18.09
2023-08-07T10:41:15.165Z,18.05
2023-08-07T10:43:44.122Z,18.12
2023-08-07T10:46:21.331Z,18.15
2023-08-07T10:49:01.042Z,18.12
2023-08-07T10:51:34.043Z,18.01
2023-08-07T10:54:02.668Z,17.94
2023-08-07T10:56:37.810Z,17.86
2023-08-07T10:59:12.887Z,17.85
2023-08-07T11:01:40.251Z,17.79
2023-08-07T11:04:15.186Z,17.73
2023-08-07T11:06:45.215Z,17.67
2023-08-07T11:09:12.263Z,17.55
2023-08-07T11:11:43.857Z,17.50
2023-08-07T11:14:15.994Z,17.47
2023-08-07T11:16:43.957Z,17.41
2023-08-07T11:19:14.223Z,17.44
2023-08-07T11:21:43.072Z,17.49
2023-08-07T11:24:14.541Z,17.54
2023-08-07T11:26:44.455Z,17.69
2023-08-07T11:29:11.401Z,17.90
2023-08-07T11:31:38.388Z,18.10
2023-08-07T11:34:05.605Z,18.30
2023-08-07T11:36:34.414Z,18.52
2023-08-07T11:39:01.746Z,18.77
2023-08-07T11:41:32.777Z,18.99
2023-08-07T11:44:00.582Z,19.12
2023-08-07T11:46:28.004Z,19.06
2023-08-07T11:48:56.747Z,19.08
2023-08-07T11:51:24.029Z,19.09
2023-08-07T11:53:57.052Z,19.18
2023-08-07T11:56:24.017Z,19.25
2023-08-07T11:58:53.603Z,19.23
2023-08-07T12:01:27.153Z,19.17
2023-08-07T12:04:08.891Z,19.06
2023-08-07T12:06:36.686Z,19.02
2023-08-07T12:09:04.104Z,19.08
2023-08-07T12:11:31.828Z,19.15
2023-08-07T12:14:04.116Z,19.33
2023-08-07T12:16:36.299Z,19.47
2023-08-07T12:19:05.608Z,19.50
2023-08-07T12:21:34.049Z,19.53
2023-08-07T12:24:01.040Z,19.57
2023-08-07T12:26:27.910Z,19.58
2023-08-07T12:28:55.495Z,19.52
2023-08-07T12:31:23.148Z,19.50
2023-08-07T12:33:50.114Z,19.56
2023-08-07T12:36:20.988Z,19.61
2023-08-07T12:38:49.001Z,19.69
2023-08-07T12:43:46.226Z,19.72
2023-08-07T12:48:42.825Z,19.81
2023-08-07T12:51:09.770Z,19.80
2023-08-07T12:53:36.820Z,19.79
2023-08-07T12:56:05.605Z,19.77
2023-08-07T12:58:32.683Z,19.83
2023-08-07T13:00:59.417Z,19.95
2023-08-07T13:03:26.415Z,19.90
2023-08-07T13:05:53.620Z,19.79
2023-08-07T13:08:20.410Z,19.78
2023-08-07T13:10:50.028Z,19.83
2023-08-07T13:13:17.611Z,19.74
2023-08-07T13:15:44.436Z,19.82
2023-08-07T13:18:11.626Z,19.90
2023-08-07T13:20:38.408Z,19.93
2023-08-07T13:23:06.757Z,19.87
2023-08-07T13:25:33.884Z,19.80
2023-08-07T13:28:02.082Z,19.84
2023-08-07T13:30:33.585Z,19.90
2023-08-07T13:33:03.128Z,19.91
2023-08-07T13:35:30.398Z,19.89
2023-08-07T13:37:57.361Z,19.93
2023-08-07T13:40:24.530Z,19.93
2023-08-07T13:42:51.523Z,20.02
2023-08-07T13:45:18.170Z,20.00
2023-08-07T13:47:44.862Z,20.02
2023-08-07T13:50:13.293Z,20.01
2023-08-07T13:52:40.039Z,20.05
2023-08-07T13:55:09.449Z,20.07
2023-08-07T13:57:36.520Z,20.14
2023-08-07T14:00:04.252Z,20.17
2023-08-07T14:02:34.136Z,20.16
2023-08-07T14:05:01.321Z,20.08
2023-08-07T14:07:28.106Z,20.05
2023-08-07T14:09:55.054Z,20.00
2023-08-07T14:12:21.873Z,20.01
2023-08-07T14:14:48.815Z,19.92
2023-08-07T14:17:15.858Z,19.94
2023-08-07T14:19:43.137Z,19.96
2023-08-07T14:22:10.811Z,20.07
2023-08-07T14:24:38.032Z,20.18
2023-08-07T14:27:05.186Z,20.15
2023-08-07T14:29:32.333Z,20.06
2023-08-07T14:31:59.386Z,20.00
2023-08-07T14:34:26.166Z,19.99
2023-08-07T14:36:54.940Z,19.98
2023-08-07T14:39:22.663Z,19.89
2023-08-07T14:41:52.572Z,19.76
2023-08-07T14:44:19.445Z,19.62
2023-08-07T14:46:46.598Z,19.60
2023-08-07T14:49:13.457Z,19.57
2023-08-07T14:51:40.485Z,19.48
2023-08-07T14:54:07.460Z,19.45
2023-08-07T14:56:34.383Z,19.46
2023-08-07T14:59:01.468Z,19.44
2023-08-07T15:01:28.356Z,19.35
2023-08-07T15:03:55.428Z,19.32
2023-08-07T15:06:22.477Z,19.28
2023-08-07T15:08:49.553Z,19.24
2023-08-07T15:11:17.505Z,19.20
2023-08-07T15:13:44.587Z,19.14
2023-08-07T15:16:13.501Z,19.13
2023-08-07T15:19:05.722Z,19.03
2023-08-07T15:21:32.747Z,18.89
2023-08-07T15:23:59.992Z,18.83
2023-08-07T15:26:27.557Z,18.74
2023-08-07T15:28:54.799Z,18.69
2023-08-07T15:31:21.801Z,18.65
2023-08-07T15:33:51.363Z,18.61
2023-08-07T15:36:18.107Z,18.59
2023-08-07T15:38:44.953Z,18.58
2023-08-07T15:41:12.608Z,18.56
2023-08-07T15:43:39.574Z,18.50
2023-08-07T15:46:06.428Z,18.44
2023-08-07T15:48:33.219Z,18.39
2023-08-07T15:51:00.111Z,18.36
2023-08-07T15:53:27.356Z,18.38
2023-08-07T15:55:54.400Z,18.36
2023-08-07T15:58:23.399Z,18.35
2023-08-07T16:00:50.867Z,18.34
2023-08-07T16:03:18.313Z,18.34
2023-08-07T16:05:45.742Z,18.30
2023-08-07T16:08:12.537Z,18.26
2023-08-07T16:10:39.459Z,18.24
2023-08-07T16:13:06.509Z,18.21
2023-08-07T16:15:34.891Z,18.21
2023-08-07T16:18:03.902Z,18.20
2023-08-07T16:20:31.858Z,18.16
2023-08-07T16:22:58.727Z,18.10
2023-08-07T16:25:25.669Z,18.01
2023-08-07T16:27:52.906Z,17.94
2023-08-07T16:30:19.956Z,17.88
2023-08-07T16:32:46.638Z,17.81
2023-08-07T16:35:14.672Z,17.57
2023-08-07T16:37:42.733Z,17.32
2023-08-07T16:40:10.913Z,17.07
2023-08-07T16:42:37.981Z,16.76
2023-08-07T16:45:05.803Z,16.54
2023-08-07T16:47:32.745Z,16.39
2023-08-07T16:49:59.974Z,16.31
2023-08-07T16:52:27.403Z,16.25
2023-08-07T16:54:55.013Z,16.15
2023-08-07T16:57:22.543Z,16.08
2023-08-07T16:59:49.466Z,15.99
2023-08-07T17:02:16.434Z,15.87
2023-08-07T17:04:43.566Z,15.83
2023-08-07T17:07:10.913Z,15.83
2023-08-07T17:09:37.965Z,15.85
2023-08-07T17:12:05.740Z,15.84
2023-08-07T17:14:33.546Z,15.86
2023-08-07T17:17:00.616Z,15.84
2023-08-07T17:19:28.024Z,15.84
2023-08-07T17:21:55.057Z,15.85
2023-08-07T17:24:21.910Z,15.88
2023-08-07T17:26:48.857Z,15.93
2023-08-07T17:29:15.629Z,15.97
2023-08-07T17:31:43.556Z,16.02
2023-08-07T17:34:11.298Z,16.05
2023-08-07T17:36:38.493Z,16.09
2023-08-07T17:39:05.731Z,16.10
2023-08-07T17:41:32.696Z,16.02
2023-08-07T17:43:59.630Z,15.96
2023-08-07T17:46:26.642Z,15.90
2023-08-07T17:48:54.035Z,15.80
2023-08-07T17:51:20.916Z,15.76
2023-08-07T17:53:47.853Z,15.71
2023-08-07T17:56:14.675Z,15.65
2023-08-07T17:58:41.440Z,15.61
2023-08-07T18:01:08.819Z,15.59
2023-08-07T18:03:35.943Z,15.52
2023-08-07T18:06:03.119Z,15.44
2023-08-07T18:08:29.867Z,15.39
2023-08-07T18:10:56.973Z,15.37
2023-08-07T18:13:24.055Z,15.35
2023-08-07T18:15:51.180Z,15.31
2023-08-07T18:18:18.385Z,15.29
2023-08-07T18:20:45.597Z,15.27
2023-08-07T18:23:14.586Z,15.22
2023-08-07T18:25:41.743Z,15.18
2023-08-07T18:28:08.687Z,15.17
2023-08-07T18:30:35.426Z,15.15
2023-08-07T18:33:02.529Z,15.09
2023-08-07T18:35:29.320Z,15.04
2023-08-07T18:37:57.460Z,15.02
2023-08-07T18:40:24.371Z,14.99
2023-08-07T18:42:51.481Z,14.99
2023-08-07T18:45:21.055Z,15.01
2023-08-07T18:47:48.065Z,14.99
2023-08-07T18:50:14.849Z,14.93
2023-08-07T18:52:41.645Z,14.90
2023-08-07T18:55:09.593Z,14.84
2023-08-07T18:57:36.766Z,14.83
2023-08-07T19:00:06.724Z,14.79
2023-08-07T19:02:33.715Z,14.72
2023-08-07T19:05:01.074Z,14.62
2023-08-07T19:07:28.217Z,14.54
2023-08-07T19:09:55.290Z,14.46
2023-08-07T19:12:22.530Z,14.48
2023-08-07T19:14:49.599Z,14.46
2023-08-07T19:17:16.524Z,14.40
2023-08-07T19:19:43.474Z,14.34
2023-08-07T19:22:10.615Z,14.30
2023-08-07T19:24:40.121Z,14.29
2023-08-07T19:27:07.280Z,14.28
2023-08-07T19:29:34.118Z,14.30
2023-08-07T19:32:01.505Z,14.24
2023-08-07T19:34:28.522Z,14.16
2023-08-07T19:36:55.489Z,14.14
2023-08-07T19:39:24.915Z,14.09
2023-08-07T19:41:51.637Z,13.99
2023-08-07T19:44:18.566Z,13.95
2023-08-07T19:46:45.646Z,13.96
2023-08-07T19:49:12.666Z,13.94
2023-08-07T19:51:39.922Z,13.90
2023-08-07T19:54:08.317Z,13.84
2023-08-07T19:56:36.794Z,13.86
2023-08-07T19:59:05.925Z,13.81
2023-08-07T20:01:33.409Z,13.75
2023-08-07T20:04:01.169Z,13.78
2023-08-07T20:06:36.100Z,13.81
2023-08-07T20:09:03.704Z,13.79
2023-08-07T20:11:38.216Z,13.73
2023-08-07T20:14:05.416Z,13.65
2023-08-07T20:16:33.774Z,13.55
2023-08-07T20:19:00.630Z,13.53
2023-08-07T20:21:28.482Z,13.54
2023-08-07T20:23:55.755Z,13.53
2023-08-07T20:26:24.836Z,13.52
2023-08-07T20:28:51.911Z,13.51
2023-08-07T20:31:18.983Z,13.52
2023-08-07T20:33:45.926Z,13.55
2023-08-07T20:36:12.833Z,13.57
2023-08-07T20:38:39.770Z,13.54
2023-08-07T20:41:06.639Z,13.47
2023-08-07T20:43:33.586Z,13.42
2023-08-07T20:46:00.552Z,13.32
2023-08-07T20:48:27.368Z,13.30
2023-08-07T20:50:54.550Z,13.30
2023-08-07T20:53:22.785Z,13.32
2023-08-07T20:55:49.850Z,13.34
2023-08-07T20:58:16.898Z,13.36
2023-08-07T21:00:43.949Z,13.42
2023-08-07T21:03:11.426Z,13.48
2023-08-07T21:05:38.542Z,13.48
2023-08-07T21:08:06.335Z,13.45
2023-08-07T21:10:33.261Z,13.33
2023-08-07T21:13:00.025Z,13.24
2023-08-07T21:15:29.926Z,13.23
2023-08-07T21:17:58.195Z,13.25
2023-08-07T21:20:25.396Z,13.31
2023-08-07T21:22:53.954Z,13.35
2023-08-07T21:25:21.738Z,13.43
2023-08-07T21:27:48.748Z,13.48
2023-08-07T21:30:15.760Z,13.44
2023-08-07T21:32:44.658Z,13.42
2023-08-07T21:35:12.466Z,13.44
2023-08-07T21:37:40.035Z,13.43
2023-08-07T21:40:09.571Z,13.37
2023-08-07T21:42:36.586Z,13.35
2023-08-07T21:45:04.257Z,13.30
2023-08-07T21:47:31.123Z,13.20
2023-08-07T21:49:58.335Z,13.11
2023-08-07T21:52:25.395Z,13.07
2023-08-07T21:54:52.263Z,12.99
2023-08-07T21:57:19.603Z,12.89
2023-08-07T21:59:46.644Z,12.91
2023-08-07T22:02:13.633Z,12.98
2023-08-07T22:04:40.996Z,13.04
2023-08-07T22:07:08.000Z,13.03
2023-08-07T22:09:35.081Z,13.06
2023-08-07T22:12:02.514Z,13.10
2023-08-07T22:14:29.458Z,13.12
2023-08-07T22:16:56.600Z,13.07
2023-08-07T22:19:23.864Z,12.99
2023-08-07T22:21:50.801Z,12.96
2023-08-07T22:24:17.759Z,12.90
2023-08-07T22:26:44.823Z,12.90
2023-08-07T22:29:11.854Z,12.93
2023-08-07T22:31:38.925Z,12.98
2023-08-07T22:34:06.326Z,13.07
2023-08-07T22:36:33.649Z,13.21
2023-08-07T22:39:00.473Z,13.29
2023-08-07T22:41:27.721Z,13.32
2023-08-07T22:43:54.618Z,13.33
2023-08-07T22:46:21.877Z,13.33
2023-08-07T22:48:48.995Z,13.31
2023-08-07T22:51:15.965Z,13.31
2023-08-07T22:53:42.871Z,13.33
2023-08-07T22:56:09.951Z,13.34
2023-08-07T22:58:36.968Z,13.36
2023-08-07T23:01:04.158Z,13.39
2023-08-07T23:03:31.484Z,13.40
2023-08-07T23:05:58.742Z,13.37
2023-08-07T23:08:25.704Z,13.46
2023-08-07T23:10:53.544Z,13.54
2023-08-07T23:13:20.592Z,13.56
2023-08-07T23:15:47.877Z,13.55
2023-08-07T23:18:15.134Z,13.54
2023-08-07T23:20:42.260Z,13.56
2023-08-07T23:23:09.407Z,13.55
2023-08-07T23:25:36.375Z,13.53
2023-08-07T23:28:03.925Z,13.51
2023-08-07T23:30:30.895Z,13.52
2023-08-07T23:32:57.878Z,13.50
2023-08-07T23:35:25.158Z,13.50
2023-08-07T23:37:52.626Z,13.51
2023-08-07T23:40:19.869Z,13.50
2023-08-07T23:42:47.943Z,13.46
2023-08-07T23:45:14.925Z,13.42
2023-08-07T23:47:42.020Z,13.40
2023-08-07T23:50:09.911Z,13.38
2023-08-07T23:52:37.816Z,13.37
2023-08-07T23:55:05.240Z,13.34
2023-08-07T23:57:32.297Z,13.32
2023-08-07T23:59:59.142Z,13.37
